Bell Canyon (1243) Station Data

Red Flag Warning: No
Fire Weather Zone: 242
SDGE Region: Orange County
Lat/Lon: 33.558/-117.547

Observations

Time Wind Speed/Gust Temp(F) RH Fuel Moist Fuel Temp(F) Dewpt(F) Tmax(F) Tmin(F) Accum Precip 10-min Precip SL Press(mb)
6/27 5:00pm 257 4 G 7 86° 30% - - 51° 95.4° 54.1° - - 878.0
6/27 4:50pm 247 4 G 8 87° 28% - - 49° 95.4° 54.1° - - 878.0
6/27 4:40pm 250 4 G 10 88° 26% - - 48° 95.4° 54.1° - - 878.0
6/27 4:20pm 245 5 G 10 88° 24% - - 47° 95.4° 54.1° - - 878.0
6/27 4:10pm 242 5 G 11 89° 23% - - 46° 95.4° 54.1° - - 878.0
6/27 4:00pm 230 4 G 10 90° 22% - - 46° 95.4° 54.1° - - 878.0
6/27 3:50pm 241 5 G 9 90° 22% - - 46° 95.4° 54.1° - - 878.0
6/27 3:40pm 246 5 G 10 91° 22% - - 46° 95.4° 54.1° - - 878.0
6/27 3:30pm 242 6 G 12 91° 21% - - 45° 95.4° 54.1° - - 878.0
6/27 3:20pm 241 5 G 13 92° 19% - - 44° 95.4° 54.1° - - 877.0
6/27 3:10pm 242 5 G 10 92° 18% - - 43° 95.4° 54.1° - - 877.0
6/27 3:00pm 236 4 G 10 93° 17% - - 41° 95.4° 54.1° - - 877.0
6/27 2:50pm 217 4 G 10 93° 16% - - 41° 95.4° 54.1° - - 877.0
6/27 2:40pm 207 2 G 7 92° 16% - - 40° 95.4° 54.1° - - 876.0
6/27 2:30pm 204 3 G 10 92° 16% - - 40° 95.4° 54.1° - - 876.0
6/27 2:20pm 210 3 G 8 92° 17% - - 40° 95.4° 54.1° - - 876.0
6/27 2:10pm 195 2 G 8 92° 17% - - 40° 95.4° 54.1° - - 876.0
6/27 2:00pm 200 3 G 9 91° 19% - - 43° 95.4° 54.1° - - 876.0
6/27 1:50pm 251 5 G 9 91° 19% - - 43° 95.4° 54.1° - - 876.0
6/27 1:40pm 252 5 G 12 91° 16% - - 39° 95.4° 54.1° - - 876.0
6/27 1:30pm 260 6 G 11 91° 16% - - 38° 95.4° 54.1° - - 876.0
6/27 1:20pm 258 6 G 10 92° 15% - - 38° 95.4° 54.1° - - 876.0
6/27 1:10pm 227 4 G 12 93° 14% - - 37° 95.4° 54.1° - - 876.0
6/27 1:00pm 221 5 G 12 93° 16% - - 40° 95.4° 54.1° - - 876.0
6/27 12:50pm 240 5 G 10 93° 19% - - 45° 95.4° 54.1° - - 877.0
6/27 12:40pm 245 5 G 11 94° 19% - - 45° 95.4° 54.1° - - 877.0
6/27 12:30pm 228 5 G 10 95° 14% - - 38° 95.4° 54.1° - - 875.0
6/27 12:20pm 223 3 G 8 95° 14% - - 38° 95.4° 54.1° - - 875.0
6/27 12:10pm 256 3 G 7 94° 15% - - 38° 94.8° 54.1° - - 875.0
6/27 12:00pm 268 2 G 6 93° 14% - - 38° 94.1° 54.1° - - 874.0
6/27 11:50am 279 3 G 6 93° 14% - - 37° 94.1° 54.1° - - 874.0
6/27 11:40am 225 2 G 7 93° 15% - - 38° 94° 54.1° - - 874.0
6/27 11:30am 237 2 G 6 91° 15% - - 37° 91.7° 54.1° - - 873.0
6/27 11:20am 241 2 G 7 91° 16% - - 39° 91.4° 54.1° - - 874.0
6/27 11:10am 248 4 G 7 90° 19% - - 41° 90.3° 54.1° - - 874.0
6/27 11:00am 250 3 G 8 89° 18% - - 41° 89.8° 54.1° - - 873.0
6/27 10:50am 248 2 G 7 89° 21% - - 43° 88.9° 54.1° - - 874.0
6/27 10:40am 224 2 G 8 88° 23% - - 45° 88.3° 54.1° - - 874.0
6/27 10:30am 245 3 G 7 87° 23% - - 44° 87.5° 54.1° - - 874.0
6/27 10:20am 257 2 G 6 87° 23% - - 44° 87.1° 54.1° - - 874.0
6/27 10:10am 222 2 G 5 86° 23% - - 44° 86.2° 54.1° - - 874.0
6/27 10:00am 239 3 G 7 86° 23% - - 44° 86.2° 54.1° - - 873.0
6/27 9:50am 235 3 G 7 85° 21% - - 41° 85.6° 54.1° - - 872.0
6/27 9:40am 217 2 G 6 85° 19% - - 39° 85.6° 54.1° - - 872.0
6/27 9:30am 204 2 G 8 84° 19% - - 37° 85.2° 54.1° - - 871.0
6/27 9:20am 218 1 G 5 84° 18% - - 36° 84.5° 54.1° - - 870.0
6/27 9:10am 202 1 G 5 83° 18% - - 36° 83.4° 54.1° - - 870.0
6/27 8:50am 200 1 G 3 81° 21% - - 37° 81.4° 54.1° - - 870.0
6/27 8:40am 174 1 G 3 81° 21% - - 37° 81.2° 54.1° - - 870.0
6/27 8:30am 156 1 G 5 80° 20% - - 36° 80.8° 54.1° - - 869.0
6/27 8:20am 150 2 G 5 78° 22% - - 36° 79.2° 54.1° - - 869.0
6/27 8:10am 185 0 G 3 76° 23% - - 36° 77.6° 54.1° - - 869.0
6/27 8:00am 226 1 G 2 76° 25% - - 38° 76.4° 54.1° - - 869.0
6/27 7:40am 267 0 G 1 72° 29% - - 38° 72.4° 54.1° - - 870.0
6/27 7:30am 243 0 G 1 72° 29% - - 38° 72.2° 54.1° - - 869.0
6/27 7:20am 0 0 G 0 71° 30% - - 38° 71.8° 54.1° - - 869.0
6/27 7:10am 213 0 G 1 68° 32% - - 37° 69.3° 54.1° - - 870.0
6/27 7:00am 84 0 G 1 65° 33% - - 35° 66.9° 54.1° - - 869.0
6/27 6:50am 84 0 G 1 64° 36% - - 36° 64.4° 54.1° - - 870.0
6/27 6:40am 0 0 G 0 61° 37% - - 34° 64.3° 54.1° - - 870.0
6/27 6:30am 0 0 G 0 59° 41% - - 35° 64.3° 54.1° - - 871.0
6/27 6:20am 0 0 G 0 55° 46% - - 35° 64.3° 54.1° - - 873.0
6/27 6:10am 0 0 G 0 55° 46% - - 34° 64.3° 54.1° - - 872.0
6/27 6:00am 0 0 G 0 56° 42% - - 34° 64.3° 54.1° - - 871.0
6/27 5:50am 77 0 G 1 59° 37% - - 33° 64.3° 54.1° - - 869.0
6/27 5:40am 57 1 G 2 60° 35% - - 32° 64.3° 54.1° - - 869.0
6/27 5:30am 62 1 G 2 62° 31% - - 31° 64.3° 54.1° - - 868.0
6/27 5:20am 51 1 G 2 61° 31% - - 31° 64.3° 54.1° - - 868.0
6/27 5:10am 54 2 G 3 61° 32% - - 31° 64.3° 54.1° - - 868.0
6/27 5:00am 64 1 G 2 61° 32% - - 31° 64.3° 54.1° - - 868.0
6/27 4:50am 34 1 G 2 60° 34% - - 32° 64.3° 54.1° - - 869.0
6/27 4:40am 68 0 G 1 55° 47% - - 35° 64.3° 54.1° - - 873.0
6/27 4:30am 260 0 G 0 55° 47% - - 36° 64.3° 54.5° - - 873.0
6/27 4:20am 268 0 G 1 58° 42% - - 35° 64.3° 55.2° - - 871.0
6/27 4:10am 57 0 G 2 62° 32% - - 32° 64.3° 55.2° - - 868.0
6/27 4:00am 57 1 G 2 62° 30% - - 31° 64.3° 55.2° - - 868.0
6/27 3:50am 52 2 G 4 62° 31% - - 31° 64.3° 55.2° - - 868.0
6/27 3:40am 49 1 G 2 63° 30% - - 31° 64.3° 55.2° - - 868.0
6/27 3:30am 49 2 G 3 64° 29% - - 31° 64.3° 55.2° - - 867.0
6/27 3:20am 47 1 G 4 60° 36% - - 33° 62.9° 55.2° - - 870.0
6/27 3:10am 0 0 G 0 57° 45% - - 36° 61.8° 55.2° - - 873.0
6/27 3:00am 48 0 G 2 58° 46% - - 37° 61.8° 55.2° - - 873.0
6/27 2:50am 92 0 G 1 56° 52% - - 38° 61.8° 55.2° - - 875.0
6/27 2:40am 0 0 G 0 56° 52% - - 38° 61.8° 55.2° - - 875.0
6/27 2:30am 0 0 G 0 56° 54% - - 39° 61.8° 55.4° - - 876.0
6/27 2:20am 69 0 G 1 57° 51% - - 39° 61.8° 55.8° - - 875.0
6/27 2:10am 76 0 G 1 56° 52% - - 39° 61.8° 55.8° - - 875.0
6/27 2:00am 0 0 G 0 57° 49% - - 38° 61.8° 56.6° - - 874.0
6/27 1:50am 0 0 G 0 58° 49% - - 38° 61.8° 57.2° - - 874.0
6/27 1:40am 0 0 G 0 58° 47% - - 38° 61.8° 57.6° - - 874.0
6/27 1:30am 0 0 G 0 58° 49% - - 39° 61.8° 57.7° - - 875.0
6/27 1:20am 85 0 G 1 59° 48% - - 39° 61.8° 58.5° - - 874.0
6/27 1:10am 0 0 G 0 59° 50% - - 41° 61.8° 58.8° - - 875.0
6/27 1:00am 105 0 G 1 60° 51% - - 41° 61.8° 59.1° - - 876.0
6/27 12:50am 73 0 G 1 60° 50% - - 41° 61.8° 59.1° - - 876.0
6/27 12:40am 0 0 G 0 60° 53% - - 42° 61.8° 59.1° - - 877.0
6/27 12:30am 102 0 G 1 61° 53% - - 43° 61.8° 60.2° - - 877.0
6/27 12:20am 0 0 G 0 61° 54% - - 44° 61.8° 60.3° - - 877.0
6/27 12:10am 115 0 G 0 62° 52% - - 44° 61.8° 61.2° - - 877.0
6/27 12:00am 79 0 G 1 62° 50% - - 43° 99.1° 55.8° - - 876.0
6/26 11:50pm 98 0 G 1 62° 51% - - 44° 99.1° 55.8° - - 877.0
6/26 11:40pm 100 0 G 1 63° 51% - - 44° 99.1° 55.8° - - 877.0
6/26 11:30pm 0 0 G 0 64° 49% - - 44° 99.1° 55.8° - - 876.0
6/26 11:20pm 89 1 G 2 64° 44% - - 42° 99.1° 55.8° - - 875.0
6/26 11:10pm 82 0 G 1 65° 48% - - 45° 99.1° 55.8° - - 876.0
6/26 11:00pm 110 0 G 1 66° 45% - - 44° 99.1° 55.8° - - 875.0
6/26 10:50pm 79 1 G 2 67° 45% - - 45° 99.1° 55.8° - - 876.0
6/26 10:40pm 37 1 G 2 67° 50% - - 48° 99.1° 55.8° - - 878.0
6/26 10:30pm 37 0 G 1 68° 52% - - 50° 99.1° 55.8° - - 879.0
6/26 10:20pm 62 0 G 2 69° 49% - - 49° 99.1° 55.8° - - 878.0
6/26 10:10pm 91 0 G 2 69° 51% - - 50° 99.1° 55.8° - - 879.0
6/26 10:00pm 93 0 G 1 70° 50% - - 51° 99.1° 55.8° - - 879.0
6/26 9:50pm 256 0 G 2 71° 49% - - 51° 99.1° 55.8° - - 879.0
6/26 9:40pm 253 0 G 1 72° 45% - - 50° 99.1° 55.8° - - 878.0
6/26 9:30pm 132 0 G 1 73° 39% - - 47° 99.1° 55.8° - - 876.0
6/26 9:20pm 288 0 G 0 74° 38% - - 47° 99.1° 55.8° - - 876.0
6/26 9:10pm 350 1 G 4 76° 35% - - 46° 99.1° 55.8° - - 876.0
6/26 9:00pm 5 3 G 5 76° 37% - - 48° 99.1° 55.8° - - 877.0
6/26 8:50pm 4 2 G 4 77° 38% - - 50° 99.1° 55.8° - - 877.0
6/26 8:40pm 41 1 G 5 78° 34% - - 48° 99.1° 55.8° - - 877.0
6/26 8:30pm 68 4 G 6 79° 35% - - 49° 99.1° 55.8° - - 877.0
6/26 8:20pm 45 2 G 5 81° 34% - - 50° 99.1° 55.8° - - 878.0
6/26 8:10pm 116 0 G 2 83° 33% - - 50° 99.1° 55.8° - - 878.0
6/26 8:00pm 132 0 G 1 84° 32% - - 51° 99.1° 55.8° - - 879.0
6/26 7:50pm 262 1 G 2 85° 31% - - 51° 99.1° 55.8° - - 879.0
6/26 7:40pm 154 0 G 1 86° 30% - - 51° 99.1° 55.8° - - 879.0
6/26 7:30pm 125 1 G 2 89° 28% - - 51° 99.1° 55.8° - - 879.0
6/26 7:20pm 237 1 G 4 89° 28% - - 51° 99.1° 55.8° - - 880.0
6/26 7:10pm 257 2 G 5 90° 27% - - 52° 99.1° 55.8° - - 880.0
6/26 7:00pm 244 3 G 6 91° 26% - - 51° 99.1° 55.8° - - 880.0
6/26 6:50pm 234 3 G 7 93° 24% - - 50° 99.1° 55.8° - - 880.0
6/26 6:40pm 245 3 G 6 93° 22% - - 48° 99.1° 55.8° - - 880.0
6/26 6:30pm 241 3 G 7 93° 21% - - 47° 99.1° 55.8° - - 879.0
6/26 6:20pm 246 3 G 6 94° 21% - - 48° 99.1° 55.8° - - 880.0
6/26 6:10pm 247 3 G 7 94° 21% - - 48° 99.1° 55.8° - - 880.0
6/26 6:00pm 254 3 G 6 95° 21% - - 48° 99.1° 55.8° - - 880.0
6/26 5:50pm 262 4 G 7 95° 20% - - 48° 99.1° 55.8° - - 880.0
6/26 5:40pm 248 4 G 7 95° 20% - - 47° 99.1° 55.8° - - 880.0
6/26 5:30pm 253 4 G 8 96° 19% - - 47° 99.1° 55.8° - - 880.0
6/26 5:20pm 261 4 G 7 96° 19% - - 48° 99.1° 55.8° - - 881.0
6/26 5:10pm 225 4 G 8 96° 20% - - 49° 99.1° 55.8° - - 881.0
6/26 5:00pm 245 4 G 7 97° 19% - - 47° 99.1° 55.8° - - 880.0
6/26 4:50pm 241 3 G 6 98° 17% - - 46° 99.1° 55.8° - - 880.0
6/26 4:40pm 229 3 G 8 98° 14% - - 42° 99.1° 55.8° - - 879.0
6/26 4:30pm 222 3 G 8 98° 12% - - 36° 98.2° 55.8° - - 878.0
6/26 4:20pm 227 3 G 7 98° 11% - - 35° 97.9° 55.8° - - 878.0
6/26 4:10pm 228 2 G 6 97° 13% - - 37° 97.3° 55.8° - - 878.0
6/26 4:00pm 249 3 G 6 97° 13% - - 38° 97° 55.8° - - 878.0
6/26 3:50pm 257 3 G 7 96° 14% - - 38° 96.9° 55.8° - - 878.0
6/26 3:40pm 259 4 G 7 95° 14% - - 38° 96.9° 55.8° - - 878.0
6/26 3:30pm 234 4 G 9 96° 14% - - 40° 96.9° 55.8° - - 878.0
6/26 3:20pm 252 3 G 6 96° 15% - - 41° 96.9° 55.8° - - 878.0
6/26 3:10pm 253 4 G 9 95° 16% - - 41° 96.9° 55.8° - - 878.0
6/26 3:00pm 250 4 G 11 95° 19% - - 46° 96.9° 55.8° - - 879.0
6/26 2:50pm 251 4 G 8 95° 20% - - 47° 96.9° 55.8° - - 879.0
6/26 2:40pm 247 5 G 9 95° 21% - - 49° 96.9° 55.8° - - 879.0
6/26 2:30pm 252 5 G 8 95° 21% - - 49° 96.9° 55.8° - - 879.0
6/26 2:20pm 253 4 G 8 95° 22% - - 50° 96.9° 55.8° - - 879.0
6/26 2:10pm 264 5 G 10 94° 23% - - 50° 96.9° 55.8° - - 879.0
6/26 2:00pm 257 4 G 9 94° 23% - - 50° 96.9° 55.8° - - 879.0
6/26 1:50pm 256 5 G 10 94° 23% - - 50° 96.9° 55.8° - - 879.0
6/26 1:40pm 257 5 G 9 93° 23% - - 50° 96.9° 55.8° - - 879.0
6/26 1:30pm 260 5 G 9 93° 23% - - 50° 96.9° 55.8° - - 879.0
6/26 1:20pm 261 5 G 10 93° 23% - - 50° 96.9° 55.8° - - 879.0
6/26 1:10pm 259 5 G 9 94° 22% - - 50° 96.9° 55.8° - - 879.0
6/26 1:00pm 259 5 G 12 95° 23% - - 51° 96.9° 55.8° - - 879.0
6/26 12:50pm 255 5 G 10 95° 22% - - 50° 96.9° 55.8° - - 879.0
6/26 12:40pm 250 5 G 9 96° 20% - - 49° 96.9° 55.8° - - 879.0
6/26 12:30pm 247 4 G 10 96° 20% - - 49° 96.9° 55.8° - - 879.0
6/26 12:20pm 263 5 G 9 96° 21% - - 50° 96.1° 55.8° - - 879.0
6/26 12:10pm 253 4 G 9 95° 22% - - 51° 96.1° 55.8° - - 879.0
6/26 12:00pm 244 4 G 8 96° 23% - - 51° 96.1° 55.8° - - 879.0
6/26 11:50am 243 4 G 9 95° 22% - - 51° 96.1° 55.8° - - 879.0
6/26 11:40am 213 3 G 6 95° 21% - - 49° 95.8° 55.8° - - 878.0
6/26 11:30am 226 3 G 11 95° 22% - - 50° 95.3° 55.8° - - 878.0
6/26 11:20am 212 3 G 9 94° 24% - - 51° 95.1° 55.8° - - 878.0
6/26 11:10am 200 2 G 8 93° 25% - - 53° 95.1° 55.8° - - 879.0
6/26 11:00am 198 2 G 8 94° 26% - - 53° 95.1° 55.8° - - 878.0
6/26 10:50am 219 3 G 10 94° 20% - - 47° 95.1° 55.8° - - 877.0
6/26 10:40am 246 3 G 8 94° 17% - - 44° 95.1° 55.8° - - 875.0
6/26 10:30am 205 2 G 7 94° 17% - - 42° 94.5° 55.8° - - 875.0
6/26 10:20am 176 2 G 5 94° 18% - - 44° 94.3° 55.8° - - 875.0
6/26 10:10am 181 1 G 5 93° 20% - - 45° 93.3° 55.8° - - 875.0
6/26 10:00am 199 1 G 3 92° 21% - - 46° 92.5° 55.8° - - 875.0
6/26 9:50am 189 1 G 3 91° 21% - - 45° 91.6° 55.8° - - 874.0
6/26 9:40am 192 1 G 4 90° 21% - - 45° 90.5° 55.8° - - 874.0
6/26 9:30am 172 1 G 3 89° 19% - - 42° 90° 55.8° - - 873.0
6/26 9:20am 127 1 G 2 88° 21% - - 43° 89° 55.8° - - 873.0
6/26 9:10am 204 1 G 4 87° 23% - - 44° 86.8° 55.8° - - 873.0
6/26 9:00am 230 1 G 4 85° 25% - - 45° 86.1° 55.8° - - 873.0
6/26 8:50am 219 1 G 5 84° 28% - - 47° 84.2° 55.8° - - 873.0
6/26 8:40am 208 0 G 2 82° 30% - - 48° 83.3° 55.8° - - 874.0
6/26 8:30am 246 0 G 2 80° 31% - - 47° 81.1° 55.8° - - 873.0
6/26 8:20am 272 1 G 2 77° 36% - - 48° 78.7° 55.8° - - 874.0
6/26 8:10am 246 1 G 2 76° 38% - - 48° 76.5° 55.8° - - 875.0
6/26 8:00am 245 0 G 1 74° 39% - - 47° 74.9° 55.8° - - 874.0
6/26 7:50am 204 0 G 1 72° 40% - - 47° 73.2° 55.8° - - 875.0
6/26 7:40am 278 0 G 1 70° 44% - - 47° 71.3° 55.8° - - 875.0
6/26 7:30am 187 0 G 1 68° 47% - - 46° 69.3° 55.8° - - 876.0
6/26 7:20am 329 0 G 2 65° 50% - - 46° 66.9° 55.8° - - 876.0
6/26 7:10am 303 0 G 1 63° 52% - - 45° 66.9° 55.8° - - 877.0
6/26 7:00am 221 0 G 2 64° 51% - - 45° 66.9° 55.8° - - 876.0
6/26 6:50am 234 0 G 0 62° 55% - - 45° 66.9° 55.8° - - 877.0
6/26 6:40am 0 0 G 0 61° 56% - - 45° 66.9° 55.8° - - 878.0
6/26 6:30am 39 1 G 3 59° 58% - - 45° 66.9° 55.8° - - 878.0
6/26 6:20am 8 2 G 3 57° 62% - - 44° 66.9° 55.8° - - 880.0
6/26 6:10am 359 1 G 3 57° 62% - - 44° 66.9° 55.8° - - 879.0
6/26 6:00am 47 1 G 2 56° 64% - - 44° 66.9° 55.8° - - 880.0